Terminal Aerodrome Forecast
Issued by NWS

Home | Current Version | Previous Version | Text Only | Print | Product List | Glossary On
Versions: 1 2 3 4 5 6 7 8 9 10 11 12 13 14 15 16 17 18 19 20 21 22 23 24 25 26 27 28 29 30 31 32 33 34 35 36 37 38 39 40 41 42 43 44 45 46 47 48 49 50
226
FTUS46 KEKA 090706 AAA
TAFACV
TAF AMD
KACV 090706Z 0907/1006 19005KT 4SM -RA BR OVC009
      TEMPO 0907/0911 VRB06KT 2SM -RA BR OVC002
     FM092000 21007KT 4SM -SHRA BR FEW007 OVC020
     FM100000 23011KT 2SM RA BR SCT010 OVC015=

USA.gov is the U.S. government's official web portal to all federal, state and local government web resources and services.